Search for airport 
image banner adimage banner ad
image banner ad

SVAD - Adicora

Located in Falcon, Venezuela

ICAO - , IATA -

Data provided by Airmate  

General information

Coordinates: N11°56'9" W69°48'42"
Elevation is feet MSL.
 
Rated:
View ratings: [VIEW]


View others Airports in Falcon

Operational data

Open for public use
Current time UTC:
Current local time:
TAF: TAF SVJC 151600Z 1518/1618 05005KT 9999 SCT016 TX33/1518Z TN24/1508Z BECMG 1518/1522 24009KT 9999 SCT016
View NOTAMs / SUP AIP / TFR affecting this airport [VIEW]
Communications frequencies: [VIEW]

Runways:

RWY identifierQFULength (ft)Width (ft)SurfaceLDA (ft)
0800
2600

Airport contact information

Address: Falcon Venezuela

Satellite view of SVAD